This is the latest recevied weather packets stored in our database for station/object SA7NOA-14. If no packets are shown the sender has not sent any weather packets the latest 10 day(s).
| Time | Temp. | Humidity | Pressure | Rain* | Wind** | Luminosity | Snow |
|---|---|---|---|---|---|---|---|
| 1788497101 | 12.78° C | 90% | 1002.5 hPa | 1.02 mm | - | - | - |
| 1788496201 | 12.22° C | 90% | 1002.7 hPa | 1.02 mm | - | - | - |
| 1788495305 | 12.78° C | 90% | 1002.7 hPa | 1.02 mm | - | - | - |
| 1788494404 | 12.22° C | 90% | 1002.7 hPa | 1.02 mm | - | - | - |
| 1788493503 | 12.78° C | 90% | 1002.7 hPa | 1.02 mm | - | - | - |
| 1788492602 | 12.78° C | 91% | 1003 hPa | 1.02 mm | - | - | - |
| 1788491701 | 12.78° C | 91% | 1003 hPa | 1.02 mm | - | - | - |
| 1788484503 | 13.33° C | 93% | 1003.5 hPa | 0.76 mm | - | - | - |
| 1788473701 | 14.44° C | 99% | 1004 hPa | 0.76 mm | - | - | - |
| 1788471003 | 15° C | 99% | 1004.2 hPa | 0.76 mm | - | - | - |
| 1788470102 | 15° C | 99% | 1004.2 hPa | 0.76 mm | - | - | - |
| 1788469201 | 15° C | 99% | 1004 hPa | 0.76 mm | - | - | - |
| 1788467405 | 15° C | 98% | 1004.6 hPa | 0.76 mm | - | - | - |
| 1788466504 | 15° C | 98% | 1004.6 hPa | 0.76 mm | - | - | - |
| 1788465602 | 15° C | 98% | 1004.6 hPa | 0.76 mm | - | - | - |
| 1788464702 | 15° C | 98% | 1004.6 hPa | 0.76 mm | - | - | - |
| 1788463801 | 15° C | 96% | 1005 hPa | 0.76 mm | - | - | - |
| 1788447603 | 14.44° C | 90% | 1007.4 hPa | 1.27 mm | - | - | - |
| 1788445801 | 15° C | 88% | 1008.2 hPa | 1.27 mm | - | - | - |
| 1788444905 | 15° C | 88% | 1008.2 hPa | 1.27 mm | - | - | - |
| 1788442201 | 15.56° C | 85% | 1008.5 hPa | 1.27 mm | - | - | - |
| 1788441301 | 15.56° C | 85% | 1008.5 hPa | 1.27 mm | - | - | - |
| 1788440405 | 16.11° C | 85% | 1008.5 hPa | 1.27 mm | - | - | - |
| 1788433203 | 14.44° C | 73% | 1010 hPa | 1.02 mm | - | - | - |
| 1788432301 | 14.44° C | 73% | 1010 hPa | 1.02 mm | - | - | - |
* Rain latest 24 hours (hover to see other rain measurements)
** Current wind speed in m/s (hover to see current wind gust speed)